createdAt,value
2018-12-23T00:03:28.722Z,77.60
2018-12-23T00:06:02.320Z,77.70
2018-12-23T00:08:33.955Z,77.70
2018-12-23T00:11:08.019Z,78.10
2018-12-23T00:13:42.064Z,78.10
2018-12-23T00:16:13.471Z,78.30
2018-12-23T00:18:46.411Z,78.30
2018-12-23T00:21:20.868Z,77.70
2018-12-23T00:23:49.001Z,77.30
2018-12-23T00:26:17.197Z,76.20
2018-12-23T00:28:45.311Z,75.40
2018-12-23T00:31:13.495Z,75.20
2018-12-23T00:33:47.628Z,74.80
2018-12-23T00:36:17.445Z,75.20
2018-12-23T00:38:49.174Z,75.10
2018-12-23T00:41:20.272Z,75.20
2018-12-23T00:43:52.164Z,75.20
2018-12-23T00:46:22.131Z,76.00
2018-12-23T00:48:56.420Z,76.70
2018-12-23T00:51:31.121Z,76.00
2018-12-23T00:54:02.941Z,75.70
2018-12-23T00:56:34.607Z,75.70
2018-12-23T00:59:08.217Z,75.80
2018-12-23T01:01:36.362Z,76.00
2018-12-23T01:04:10.371Z,75.30
2018-12-23T01:06:42.161Z,74.80
2018-12-23T01:09:14.044Z,75.60
2018-12-23T01:11:46.361Z,76.80
2018-12-23T01:14:17.894Z,79.10
2018-12-23T01:16:51.677Z,80.40
2018-12-23T01:19:25.681Z,80.00
2018-12-23T01:21:57.432Z,81.40
2018-12-23T01:24:31.724Z,80.00
2018-12-23T01:26:59.850Z,80.70
2018-12-23T01:29:33.974Z,80.10
2018-12-23T01:32:07.823Z,80.30
2018-12-23T01:34:39.172Z,80.00
2018-12-23T01:37:13.646Z,80.10
2018-12-23T01:39:45.349Z,80.50
2018-12-23T01:42:19.882Z,81.30
2018-12-23T01:44:51.459Z,80.70
2018-12-23T01:47:23.888Z,81.80
2018-12-23T01:49:56.150Z,81.90
2018-12-23T01:52:28.194Z,82.60
2018-12-23T01:54:59.327Z,82.70
2018-12-23T01:57:31.367Z,83.00
2018-12-23T02:00:07.569Z,83.40
2018-12-23T02:02:40.898Z,84.10
2018-12-23T02:05:12.505Z,84.50
2018-12-23T02:07:44.521Z,84.80
2018-12-23T02:10:18.165Z,84.70
2018-12-23T02:12:52.187Z,84.80
2018-12-23T02:15:24.317Z,84.70
2018-12-23T02:17:56.065Z,84.70
2018-12-23T02:20:28.288Z,84.70
2018-12-23T02:23:02.659Z,84.30
2018-12-23T02:25:36.611Z,84.60
2018-12-23T02:28:08.659Z,84.30
2018-12-23T02:30:40.524Z,84.60
2018-12-23T02:33:13.430Z,84.60
2018-12-23T02:35:55.263Z,84.60
2018-12-23T02:38:21.079Z,84.60
2018-12-23T02:40:53.234Z,84.50
2018-12-23T02:43:22.559Z,84.50
2018-12-23T02:45:53.821Z,84.90
2018-12-23T02:48:28.221Z,84.50
2018-12-23T02:51:02.362Z,84.40
2018-12-23T02:53:33.734Z,84.30
2018-12-23T02:56:08.266Z,84.20
2018-12-23T02:58:40.478Z,84.20
2018-12-23T03:01:14.431Z,84.20
2018-12-23T03:03:45.755Z,85.10
2018-12-23T03:06:20.389Z,85.50
2018-12-23T03:08:52.944Z,85.30
2018-12-23T03:11:27.369Z,85.90
2018-12-23T03:13:56.788Z,85.90
2018-12-23T03:16:27.989Z,86.00
2018-12-23T03:19:00.351Z,86.30
2018-12-23T03:21:32.537Z,86.60
2018-12-23T03:24:04.186Z,86.80
2018-12-23T03:26:34.258Z,87.60
2018-12-23T03:29:08.561Z,87.90
2018-12-23T03:31:40.182Z,88.00
2018-12-23T03:34:14.532Z,86.40
2018-12-23T03:36:48.597Z,86.50
2018-12-23T03:39:19.989Z,85.90
2018-12-23T03:41:57.959Z,85.10
2018-12-23T03:44:29.143Z,85.20
2018-12-23T03:47:02.964Z,85.20
2018-12-23T03:49:34.562Z,85.00
2018-12-23T03:52:06.567Z,85.60
2018-12-23T03:54:37.681Z,85.50
2018-12-23T03:57:06.831Z,84.80
2018-12-23T03:59:40.620Z,84.60
2018-12-23T04:02:12.181Z,84.70
2018-12-23T04:04:46.767Z,84.70
2018-12-23T04:07:19.357Z,84.40
2018-12-23T04:09:54.904Z,84.10
2018-12-23T04:12:26.496Z,84.40
2018-12-23T04:14:57.783Z,84.70
2018-12-23T04:17:32.245Z,83.90
2018-12-23T04:20:06.369Z,84.30
2018-12-23T04:22:40.531Z,83.50
2018-12-23T04:25:12.197Z,83.10
2018-12-23T04:27:47.580Z,82.60
2018-12-23T04:30:21.847Z,82.80
2018-12-23T04:32:51.527Z,83.40
2018-12-23T04:35:26.048Z,83.30
2018-12-23T04:38:00.044Z,83.90
2018-12-23T04:40:31.382Z,84.40
2018-12-23T04:43:03.381Z,84.40
2018-12-23T04:45:37.105Z,84.80
2018-12-23T04:48:08.717Z,84.80
2018-12-23T04:50:40.777Z,84.80
2018-12-23T04:53:12.702Z,84.80
2018-12-23T04:55:47.249Z,84.70
2018-12-23T04:58:18.949Z,85.70
2018-12-23T05:00:50.457Z,85.30
2018-12-23T05:03:24.894Z,85.90
2018-12-23T05:05:56.705Z,86.40
2018-12-23T05:08:28.157Z,86.40
2018-12-23T05:11:00.265Z,85.90
2018-12-23T05:13:34.211Z,85.60
2018-12-23T05:16:08.608Z,86.80
2018-12-23T05:18:40.035Z,86.00
2018-12-23T05:21:13.724Z,85.90
2018-12-23T05:23:47.789Z,86.80
2018-12-23T05:26:19.772Z,86.00
2018-12-23T05:28:52.016Z,86.70
2018-12-23T05:31:26.991Z,86.20
2018-12-23T05:34:00.701Z,86.50
2018-12-23T05:36:30.170Z,85.60
2018-12-23T05:39:05.228Z,85.70
2018-12-23T05:41:36.389Z,86.00
2018-12-23T05:44:10.827Z,86.20
2018-12-23T05:46:45.047Z,86.40
2018-12-23T05:49:16.792Z,86.20
2018-12-23T05:51:51.149Z,87.10
2018-12-23T05:54:22.781Z,86.10
2018-12-23T05:56:54.544Z,86.50
2018-12-23T05:59:27.320Z,86.30
2018-12-23T06:02:01.295Z,86.60
2018-12-23T06:04:33.019Z,86.50
2018-12-23T06:07:04.284Z,87.30
2018-12-23T06:09:36.471Z,87.50
2018-12-23T06:12:09.077Z,87.10
2018-12-23T06:14:40.725Z,86.80
2018-12-23T06:17:14.826Z,87.30
2018-12-23T06:19:47.187Z,86.90
2018-12-23T06:22:19.077Z,86.90
2018-12-23T06:24:51.420Z,87.50
2018-12-23T06:27:23.299Z,87.10
2018-12-23T06:29:59.657Z,86.50
2018-12-23T06:32:34.112Z,86.00
2018-12-23T06:35:05.861Z,86.30
2018-12-23T06:37:37.872Z,85.90
2018-12-23T06:40:12.427Z,85.30
2018-12-23T06:42:46.428Z,84.80
2018-12-23T06:45:18.308Z,84.80
2018-12-23T06:50:18.281Z,85.50
2018-12-23T06:52:50.163Z,85.20
2018-12-23T06:55:22.950Z,85.20
2018-12-23T06:57:55.726Z,84.90
2018-12-23T07:00:27.406Z,86.30
2018-12-23T07:02:56.950Z,86.40
2018-12-23T07:05:28.937Z,86.50
2018-12-23T07:08:00.742Z,86.80
2018-12-23T07:10:35.307Z,86.30
2018-12-23T07:13:06.860Z,86.10
2018-12-23T07:15:38.954Z,85.60
2018-12-23T07:18:11.085Z,86.20
2018-12-23T07:20:42.852Z,86.80
2018-12-23T07:23:14.852Z,86.40
2018-12-23T07:25:44.741Z,86.00
2018-12-23T07:28:16.746Z,86.10
2018-12-23T07:30:48.709Z,85.70
2018-12-23T07:33:18.780Z,86.00
2018-12-23T07:35:50.705Z,84.90
2018-12-23T07:38:22.704Z,85.30
2018-12-23T07:40:54.732Z,84.90
2018-12-23T07:43:29.073Z,85.50
2018-12-23T07:46:02.262Z,85.10
2018-12-23T07:48:34.704Z,84.90
2018-12-23T07:51:05.981Z,85.20
2018-12-23T07:53:39.608Z,85.70
2018-12-23T07:56:11.422Z,85.10
2018-12-23T07:58:43.423Z,85.10
2018-12-23T08:01:14.627Z,84.50
2018-12-23T08:03:45.727Z,84.00
2018-12-23T08:06:17.017Z,83.10
2018-12-23T08:08:48.229Z,82.90
2018-12-23T08:11:20.226Z,81.90
2018-12-23T08:13:54.636Z,82.30
2018-12-23T08:16:26.323Z,81.80
2018-12-23T08:19:00.655Z,81.30
2018-12-23T08:21:32.734Z,80.50
2018-12-23T08:24:04.510Z,81.80
2018-12-23T08:26:35.768Z,81.40
2018-12-23T08:29:09.359Z,81.10
2018-12-23T08:31:41.236Z,80.50
2018-12-23T08:34:14.907Z,80.60
2018-12-23T08:36:46.613Z,80.70
2018-12-23T08:39:16.816Z,80.80
2018-12-23T08:41:49.012Z,79.60
2018-12-23T08:44:21.497Z,79.50
2018-12-23T08:46:55.413Z,78.70
2018-12-23T08:49:27.358Z,78.60
2018-12-23T08:52:01.545Z,77.80
2018-12-23T08:54:35.632Z,77.10
2018-12-23T08:57:09.792Z,76.40
2018-12-23T08:59:39.441Z,76.70
2018-12-23T09:02:11.436Z,75.20
2018-12-23T09:04:45.036Z,76.00
2018-12-23T09:07:16.676Z,74.50
2018-12-23T09:09:48.674Z,73.90
2018-12-23T09:12:22.331Z,74.00
2018-12-23T09:14:53.811Z,73.60
2018-12-23T09:17:23.035Z,73.30
2018-12-23T09:19:57.594Z,73.00
2018-12-23T09:22:29.272Z,72.90
2018-12-23T09:25:00.425Z,72.30
2018-12-23T09:27:30.275Z,72.30
2018-12-23T09:30:05.631Z,71.30
2018-12-23T09:32:39.435Z,72.10
2018-12-23T09:35:13.288Z,71.20
2018-12-23T09:37:44.961Z,72.30
2018-12-23T09:40:19.346Z,71.30
2018-12-23T09:42:53.487Z,71.30
2018-12-23T09:45:23.172Z,71.30
2018-12-23T09:47:54.345Z,71.10
2018-12-23T09:50:25.643Z,71.20
2018-12-23T09:53:00.268Z,71.10
2018-12-23T09:55:29.891Z,71.10
2018-12-23T09:57:59.926Z,71.20
2018-12-23T10:00:29.074Z,71.20
2018-12-23T10:03:01.114Z,70.50
2018-12-23T10:05:32.322Z,71.30
2018-12-23T10:08:09.899Z,71.20
2018-12-23T10:10:40.174Z,71.30
2018-12-23T10:13:11.605Z,71.30
2018-12-23T10:15:43.380Z,71.20
2018-12-23T10:18:14.674Z,71.40
2018-12-23T10:20:46.781Z,70.80
2018-12-23T10:23:19.097Z,70.00
2018-12-23T10:25:52.211Z,70.10
2018-12-23T10:28:23.363Z,69.10
2018-12-23T10:30:54.754Z,69.40
2018-12-23T10:33:26.818Z,68.20
2018-12-23T10:35:58.180Z,68.10
2018-12-23T10:38:29.471Z,67.70
2018-12-23T10:41:01.517Z,67.80
2018-12-23T10:43:33.443Z,68.20
2018-12-23T10:46:05.374Z,66.90
2018-12-23T10:48:39.307Z,67.40
2018-12-23T10:51:11.261Z,67.60
2018-12-23T10:56:13.668Z,67.30
2018-12-23T10:58:47.997Z,66.90
2018-12-23T11:01:20.079Z,67.20
2018-12-23T11:03:53.700Z,67.90
2018-12-23T11:13:50.627Z,66.90
2018-12-23T11:16:25.877Z,67.00
2018-12-23T11:18:55.277Z,67.00
2018-12-23T11:21:27.244Z,68.80
2018-12-23T11:24:01.792Z,67.30
2018-12-23T11:26:33.365Z,67.20
2018-12-23T11:29:05.523Z,66.80
2018-12-23T11:31:40.272Z,66.90
2018-12-23T11:34:12.394Z,66.60
2018-12-23T11:36:47.169Z,66.90
2018-12-23T11:39:18.515Z,66.10
2018-12-23T11:44:46.440Z,65.20
2018-12-23T11:47:20.665Z,65.50
2018-12-23T11:49:52.006Z,65.10
2018-12-23T11:52:25.562Z,65.00
2018-12-23T11:54:55.631Z,64.70
2018-12-23T11:57:29.463Z,65.20
2018-12-23T12:00:01.262Z,65.10
2018-12-23T12:02:32.518Z,64.80
2018-12-23T12:05:06.632Z,65.50
2018-12-23T12:07:36.285Z,66.00
2018-12-23T12:10:08.381Z,65.50
2018-12-23T12:15:09.515Z,66.40
2018-12-23T12:17:37.753Z,66.20
2018-12-23T12:20:10.292Z,66.90
2018-12-23T12:22:44.304Z,67.60
2018-12-23T12:25:15.863Z,67.10
2018-12-23T12:27:47.728Z,66.40
2018-12-23T12:30:22.007Z,67.40
2018-12-23T12:32:54.130Z,67.00
2018-12-23T12:35:27.019Z,66.50
2018-12-23T12:38:02.233Z,66.70
2018-12-23T12:40:35.336Z,65.60
2018-12-23T12:43:06.583Z,65.80
2018-12-23T12:45:36.719Z,66.20
2018-12-23T12:48:08.666Z,67.00
2018-12-23T12:50:38.083Z,68.80
2018-12-23T12:53:11.989Z,69.20
2018-12-23T12:55:44.304Z,70.30
2018-12-23T12:58:15.819Z,70.20
2018-12-23T13:00:47.915Z,71.50
2018-12-23T13:03:24.549Z,71.50
2018-12-23T13:06:02.233Z,70.10
2018-12-23T13:08:36.926Z,74.20
2018-12-23T13:11:08.853Z,74.40
2018-12-23T13:13:40.125Z,75.50
2018-12-23T13:16:15.270Z,76.60
2018-12-23T13:18:49.610Z,76.50
2018-12-23T13:21:25.788Z,76.50
2018-12-23T13:23:57.543Z,76.50
2018-12-23T13:26:26.785Z,75.30
2018-12-23T13:28:59.023Z,76.50
2018-12-23T13:31:33.574Z,76.90
2018-12-23T13:34:05.249Z,75.60
2018-12-23T13:36:39.936Z,76.30
2018-12-23T13:39:11.891Z,75.90
2018-12-23T13:43:59.693Z,75.50
2018-12-23T13:47:18.100Z,75.80
2018-12-23T13:50:10.601Z,75.40
2018-12-23T13:55:04.831Z,76.10
2018-12-23T13:57:49.286Z,77.60
2018-12-23T14:00:37.598Z,78.80
2018-12-23T14:03:31.186Z,79.90
2018-12-23T14:06:31.551Z,79.50
2018-12-23T14:11:33.610Z,79.20
2018-12-23T14:14:05.282Z,80.00
2018-12-23T14:16:37.356Z,81.40
2018-12-23T14:19:10.672Z,81.10
2018-12-23T14:21:42.454Z,81.40
2018-12-23T14:24:14.205Z,81.30
2018-12-23T14:26:46.295Z,81.30
2018-12-23T14:29:18.391Z,81.30
2018-12-23T14:31:52.720Z,81.50
2018-12-23T14:34:26.752Z,81.30
2018-12-23T14:36:58.189Z,81.40
2018-12-23T14:39:30.066Z,82.00
2018-12-23T14:42:02.208Z,81.80
2018-12-23T14:44:34.170Z,81.30
2018-12-23T14:47:08.566Z,81.40
2018-12-23T14:49:40.389Z,82.10
2018-12-23T14:52:12.825Z,81.20
2018-12-23T14:54:44.677Z,82.70
2018-12-23T14:57:16.700Z,82.10
2018-12-23T14:59:47.838Z,83.40
2018-12-23T15:02:18.952Z,83.80
2018-12-23T15:04:50.984Z,83.90
2018-12-23T15:07:23.974Z,84.60
2018-12-23T15:09:55.988Z,84.70
2018-12-23T15:12:28.111Z,84.20
2018-12-23T15:15:02.666Z,85.40
2018-12-23T15:17:33.969Z,85.90
2018-12-23T15:20:07.573Z,85.80
2018-12-23T15:22:39.703Z,86.20
2018-12-23T15:25:14.250Z,86.20
2018-12-23T15:27:45.582Z,86.30
2018-12-23T15:30:17.740Z,86.30
2018-12-23T15:32:50.140Z,86.30
2018-12-23T15:35:22.218Z,85.60
2018-12-23T15:37:51.753Z,85.20
2018-12-23T15:40:26.381Z,84.60
2018-12-23T15:42:57.742Z,84.70
2018-12-23T15:45:32.146Z,84.40
2018-12-23T15:48:06.554Z,86.30
2018-12-23T15:50:40.854Z,86.30
2018-12-23T15:53:15.449Z,86.00
2018-12-23T15:55:49.726Z,86.80
2018-12-23T15:58:21.577Z,85.20
2018-12-23T16:00:52.917Z,86.20
2018-12-23T16:03:25.075Z,87.00
2018-12-23T16:05:55.018Z,87.20
2018-12-23T16:08:27.112Z,86.20
2018-12-23T16:10:58.371Z,86.10
2018-12-23T16:13:32.754Z,87.00
2018-12-23T16:16:04.476Z,86.40
2018-12-23T16:18:36.609Z,86.00
2018-12-23T16:21:10.552Z,85.90
2018-12-23T16:23:43.859Z,86.10
2018-12-23T16:26:21.141Z,87.30
2018-12-23T16:28:52.609Z,88.00
2018-12-23T16:31:27.077Z,86.80
2018-12-23T16:34:01.361Z,87.20
2018-12-23T16:36:39.388Z,86.80
2018-12-23T16:39:13.009Z,86.70
2018-12-23T16:41:44.517Z,87.40
2018-12-23T16:44:18.929Z,87.60
2018-12-23T16:46:50.407Z,89.30
2018-12-23T16:49:22.398Z,88.20
2018-12-23T16:51:54.213Z,88.90
2018-12-23T16:54:25.400Z,88.40
2018-12-23T16:56:57.281Z,88.40
2018-12-23T16:59:29.733Z,88.50
2018-12-23T17:02:03.850Z,88.50
2018-12-23T17:04:37.844Z,88.50
2018-12-23T17:07:09.334Z,88.20
2018-12-23T17:09:42.690Z,89.10
2018-12-23T17:12:14.731Z,88.90
2018-12-23T17:14:46.761Z,89.00
2018-12-23T17:17:18.119Z,89.20
2018-12-23T17:19:50.151Z,89.30
2018-12-23T17:22:24.225Z,88.90
2018-12-23T17:24:55.943Z,89.10
2018-12-23T17:27:26.816Z,90.10
2018-12-23T17:29:58.002Z,89.60
2018-12-23T17:32:29.341Z,89.80
2018-12-23T17:35:00.611Z,90.00
2018-12-23T17:37:32.028Z,89.50
2018-12-23T17:40:03.750Z,89.20
2018-12-23T17:42:35.215Z,89.60
2018-12-23T17:45:06.891Z,90.00
2018-12-23T17:47:41.263Z,89.10
2018-12-23T17:50:12.843Z,90.20
2018-12-23T17:52:44.055Z,90.00
2018-12-23T17:55:15.425Z,90.20
2018-12-23T17:57:48.985Z,90.00
2018-12-23T18:00:20.729Z,90.20
2018-12-23T18:02:52.806Z,90.40
2018-12-23T18:05:24.893Z,90.40
2018-12-23T18:07:56.756Z,90.40
2018-12-23T18:10:28.938Z,90.40
2018-12-23T18:13:03.800Z,90.40
2018-12-23T18:15:35.907Z,90.50
2018-12-23T18:18:07.826Z,90.40
2018-12-23T18:20:39.977Z,90.40
2018-12-23T18:23:11.936Z,90.50
2018-12-23T18:25:46.235Z,90.40
2018-12-23T18:28:16.182Z,90.50
2018-12-23T18:30:50.709Z,90.40
2018-12-23T18:33:22.465Z,90.40
2018-12-23T18:35:54.265Z,90.40
2018-12-23T18:38:24.332Z,90.40
2018-12-23T18:40:56.459Z,90.50
2018-12-23T18:43:31.045Z,90.40
2018-12-23T18:46:02.381Z,90.40
2018-12-23T18:48:35.037Z,90.40
2018-12-23T18:51:06.506Z,90.50
2018-12-23T18:53:38.585Z,90.40
2018-12-23T18:56:10.858Z,90.20
2018-12-23T18:58:42.997Z,90.40
2018-12-23T19:01:16.429Z,90.30
2018-12-23T19:03:48.473Z,90.40
2018-12-23T19:06:20.356Z,90.00
2018-12-23T19:09:05.370Z,90.50
2018-12-23T19:11:57.114Z,90.50
2018-12-23T19:14:43.579Z,90.40
2018-12-23T19:18:05.202Z,90.40
2018-12-23T19:20:50.199Z,90.40
2018-12-23T19:23:44.698Z,90.40
2018-12-23T19:27:44.387Z,90.40
2018-12-23T19:31:02.672Z,90.40
2018-12-23T19:35:53.824Z,90.40
2018-12-23T19:38:39.973Z,90.40
2018-12-23T19:41:48.168Z,90.80
2018-12-23T19:45:06.684Z,91.20
2018-12-23T19:49:58.432Z,90.40
2018-12-23T19:54:48.841Z,90.40
2018-12-23T19:57:45.407Z,90.90
2018-12-23T20:00:44.862Z,91.70
2018-12-23T20:04:36.080Z,91.90
2018-12-23T20:07:31.411Z,91.40
2018-12-23T20:10:21.876Z,91.60
2018-12-23T20:13:11.402Z,91.80
2018-12-23T20:16:05.947Z,91.80
2018-12-23T20:21:33.069Z,91.60
2018-12-23T20:25:33.659Z,92.20
2018-12-23T20:28:32.600Z,92.10
2018-12-23T20:31:22.921Z,92.10
2018-12-23T20:36:25.702Z,92.40
2018-12-23T20:41:22.623Z,91.80
2018-12-23T20:45:25.998Z,92.10
2018-12-23T20:48:12.547Z,91.90
2018-12-23T20:53:03.459Z,91.70
2018-12-23T20:55:49.955Z,91.20
2018-12-23T20:58:41.885Z,91.40
2018-12-23T21:01:41.973Z,91.50
2018-12-23T21:04:55.668Z,91.70
2018-12-23T21:09:47.004Z,91.80
2018-12-23T21:12:45.598Z,91.90
2018-12-23T21:16:10.074Z,91.90
2018-12-23T21:20:59.508Z,91.90
2018-12-23T21:30:08.487Z,91.70
2018-12-23T21:35:05.714Z,91.70
2018-12-23T21:40:00.278Z,92.10
2018-12-23T21:43:03.695Z,92.40
2018-12-23T21:45:50.745Z,92.90
2018-12-23T21:50:56.958Z,92.70
2018-12-23T21:53:47.655Z,92.90
2018-12-23T21:56:39.751Z,93.30
2018-12-23T22:00:44.096Z,93.30
2018-12-23T22:04:30.530Z,93.90
2018-12-23T22:07:42.062Z,93.80
2018-12-23T22:11:12.743Z,94.20
2018-12-23T22:13:40.537Z,94.80
2018-12-23T22:16:08.406Z,94.90
2018-12-23T22:18:36.260Z,94.90
2018-12-23T22:21:04.214Z,94.90
2018-12-23T22:23:34.095Z,95.30
2018-12-23T22:26:03.459Z,95.80
2018-12-23T22:28:31.419Z,95.00
2018-12-23T22:30:59.233Z,94.90
2018-12-23T22:33:26.972Z,94.90
2018-12-23T22:35:54.853Z,94.90
2018-12-23T22:38:22.684Z,94.70
2018-12-23T22:41:05.570Z,94.90
2018-12-23T22:43:33.351Z,94.90
2018-12-23T22:46:01.221Z,95.20
2018-12-23T22:48:28.999Z,95.70
2018-12-23T22:50:57.076Z,95.80
2018-12-23T22:53:24.877Z,95.90
2018-12-23T22:55:52.768Z,95.90
2018-12-23T22:58:20.591Z,95.80
2018-12-23T23:00:53.711Z,95.10
2018-12-23T23:03:21.553Z,95.90
2018-12-23T23:05:49.416Z,96.30
2018-12-23T23:08:17.235Z,96.10
2018-12-23T23:10:50.214Z,96.00
2018-12-23T23:13:18.674Z,95.70
2018-12-23T23:15:46.870Z,96.10
2018-12-23T23:18:14.707Z,95.90
2018-12-23T23:20:42.500Z,95.40
2018-12-23T23:23:10.294Z,95.80
2018-12-23T23:25:38.129Z,94.90
2018-12-23T23:28:05.905Z,95.40
2018-12-23T23:30:33.839Z,94.90
2018-12-23T23:33:01.647Z,95.10
2018-12-23T23:35:29.453Z,94.50
2018-12-23T23:37:57.330Z,94.40
2018-12-23T23:40:25.277Z,94.50
2018-12-23T23:42:53.079Z,94.70
2018-12-23T23:45:20.960Z,94.80
2018-12-23T23:47:48.737Z,88.50
2018-12-23T23:50:16.599Z,90.50
2018-12-23T23:52:44.477Z,91.20
2018-12-23T23:55:12.326Z,89.90
2018-12-23T23:57:40.121Z,90.80
